createdAt,value
2018-03-08T00:01:19.921Z,60.70
2018-03-08T00:03:47.575Z,62.07
2018-03-08T00:06:15.289Z,59.35
2018-03-08T00:08:43.121Z,56.45
2018-03-08T00:11:11.339Z,56.67
2018-03-08T00:13:38.958Z,57.10
2018-03-08T00:16:06.620Z,56.72
2018-03-08T00:18:34.233Z,60.33
2018-03-08T00:21:01.885Z,56.03
2018-03-08T00:23:29.726Z,57.10
2018-03-08T00:25:57.388Z,56.23
2018-03-08T00:28:25.003Z,56.83
2018-03-08T00:30:52.617Z,57.93
2018-03-08T00:33:20.268Z,57.23
2018-03-08T00:35:47.887Z,55.60
2018-03-08T00:38:15.529Z,56.50
2018-03-08T00:40:43.184Z,56.20
2018-03-08T00:43:10.839Z,55.47
2018-03-08T00:45:39.221Z,57.97
2018-03-08T00:48:07.641Z,56.80
2018-03-08T00:50:35.264Z,54.63
2018-03-08T00:53:02.915Z,56.80
2018-03-08T00:55:30.531Z,63.70
2018-03-08T00:57:58.189Z,50.03
2018-03-08T01:00:25.851Z,50.53
2018-03-08T01:02:53.508Z,55.40
2018-03-08T01:05:21.116Z,50.43
2018-03-08T01:07:48.744Z,50.65
2018-03-08T01:10:16.393Z,55.40
2018-03-08T01:12:44.001Z,49.10
2018-03-08T01:15:13.024Z,48.57
2018-03-08T01:17:41.121Z,47.60
2018-03-08T01:20:08.811Z,47.07
2018-03-08T01:22:37.203Z,46.43
2018-03-08T01:25:05.365Z,46.27
2018-03-08T01:27:32.979Z,45.90
2018-03-08T01:30:00.632Z,46.65
2018-03-08T01:32:28.248Z,46.60
2018-03-08T01:34:55.917Z,46.37
2018-03-08T01:37:23.576Z,49.33
2018-03-08T01:39:51.184Z,45.60
2018-03-08T01:42:18.805Z,42.03
2018-03-08T01:44:46.452Z,40.97
2018-03-08T01:47:14.861Z,44.40
2018-03-08T01:49:42.561Z,44.70
2018-03-08T01:52:12.138Z,44.47
2018-03-08T01:54:39.925Z,47.40
2018-03-08T01:57:07.576Z,44.47
2018-03-08T01:59:35.188Z,47.00
2018-03-08T02:02:03.564Z,46.73
2018-03-08T02:04:31.984Z,46.77
2018-03-08T02:07:00.189Z,44.35
2018-03-08T02:09:29.358Z,46.88
2018-03-08T02:11:57.028Z,45.55
2018-03-08T02:14:24.680Z,50.37
2018-03-08T02:16:52.289Z,45.90
2018-03-08T02:19:20.706Z,45.85
2018-03-08T02:21:48.317Z,46.40
2018-03-08T02:24:16.717Z,45.47
2018-03-08T02:26:44.341Z,44.85
2018-03-08T02:29:11.984Z,45.60
2018-03-08T02:31:39.644Z,45.60
2018-03-08T02:34:07.514Z,46.50
2018-03-08T02:36:35.130Z,47.13
2018-03-08T02:39:02.783Z,48.97
2018-03-08T02:41:30.406Z,48.53
2018-03-08T02:43:58.064Z,50.50
2018-03-08T02:46:26.488Z,47.83
2018-03-08T02:48:54.148Z,46.47
2018-03-08T02:51:21.756Z,45.87
2018-03-08T02:53:49.377Z,44.35
2018-03-08T02:56:17.034Z,43.20
2018-03-08T02:58:44.664Z,45.38
2018-03-08T03:01:12.316Z,46.80
2018-03-08T03:03:40.693Z,47.57
2018-03-08T03:06:09.129Z,47.70
2018-03-08T03:08:36.802Z,44.90
2018-03-08T03:11:04.416Z,47.30
2018-03-08T03:13:32.064Z,46.22
2018-03-08T03:16:00.496Z,49.67
2018-03-08T03:18:28.108Z,49.20
2018-03-08T03:20:55.732Z,49.43
2018-03-08T03:23:24.734Z,50.33
2018-03-08T03:25:53.117Z,49.47
2018-03-08T03:28:20.836Z,50.10
2018-03-08T03:30:48.457Z,50.03
2018-03-08T03:33:16.581Z,47.17
2018-03-08T03:35:44.236Z,53.63
2018-03-08T03:38:11.888Z,51.67
2018-03-08T03:40:39.565Z,51.30
2018-03-08T03:43:07.414Z,53.00
2018-03-08T03:45:35.241Z,48.87
2018-03-08T03:48:02.901Z,49.53
2018-03-08T03:50:30.529Z,48.90
2018-03-08T03:52:58.180Z,50.37
2018-03-08T03:55:25.797Z,53.63
2018-03-08T03:57:53.469Z,52.30
2018-03-08T04:00:21.085Z,55.83
2018-03-08T04:02:49.805Z,54.70
2018-03-08T04:05:17.422Z,50.73
2018-03-08T04:07:45.036Z,53.03
2018-03-08T04:10:12.700Z,49.08
2018-03-08T04:12:40.317Z,53.77
2018-03-08T04:15:07.991Z,52.17
2018-03-08T04:17:35.624Z,51.20
2018-03-08T04:20:03.290Z,51.73
2018-03-08T04:22:30.909Z,53.80
2018-03-08T04:24:58.564Z,53.13
2018-03-08T04:27:26.222Z,51.77
2018-03-08T04:29:54.696Z,53.17
2018-03-08T04:32:22.356Z,52.08
2018-03-08T04:34:49.972Z,54.55
2018-03-08T04:37:17.628Z,57.28
2018-03-08T04:39:45.256Z,53.35
2018-03-08T04:42:12.913Z,59.03
2018-03-08T04:44:40.528Z,55.75
2018-03-08T04:47:08.184Z,53.70
2018-03-08T04:49:35.801Z,62.17
2018-03-08T04:52:03.421Z,68.83
2018-03-08T04:54:31.633Z,66.55
2018-03-08T04:56:59.284Z,63.00
2018-03-08T04:59:27.129Z,57.50
2018-03-08T05:01:54.813Z,58.23
2018-03-08T05:04:22.468Z,57.67
2018-03-08T05:06:50.340Z,68.90
2018-03-08T05:09:17.994Z,55.97
2018-03-08T05:11:45.612Z,59.80
2018-03-08T05:14:13.260Z,60.80
2018-03-08T05:16:40.916Z,60.58
2018-03-08T05:19:08.541Z,56.30
2018-03-08T05:21:36.157Z,56.42
2018-03-08T05:24:03.846Z,56.57
2018-03-08T05:26:31.533Z,54.67
2018-03-08T05:28:59.145Z,58.47
2018-03-08T05:31:26.765Z,67.10
2018-03-08T05:33:54.500Z,62.17
2018-03-08T05:36:22.152Z,58.83
2018-03-08T05:38:49.773Z,59.77
2018-03-08T05:41:17.424Z,57.60
2018-03-08T05:43:45.045Z,64.83
2018-03-08T05:46:12.704Z,79.83
2018-03-08T05:48:40.377Z,101.87
2018-03-08T05:51:08.017Z,95.10
2018-03-08T05:53:35.697Z,59.47
2018-03-08T05:56:03.543Z,70.33
2018-03-08T05:58:31.210Z,75.35
2018-03-08T06:00:58.829Z,61.20
2018-03-08T06:03:26.497Z,55.00
2018-03-08T06:05:54.276Z,75.17
2018-03-08T06:08:21.957Z,59.03
2018-03-08T06:10:49.611Z,55.63
2018-03-08T06:13:17.281Z,61.80
2018-03-08T06:15:45.664Z,57.17
2018-03-08T06:18:14.041Z,59.73
2018-03-08T06:20:42.114Z,62.10
2018-03-08T06:23:09.725Z,53.80
2018-03-08T06:25:37.337Z,51.75
2018-03-08T06:28:05.759Z,68.07
2018-03-08T06:30:33.417Z,53.08
2018-03-08T06:33:01.032Z,49.70
2018-03-08T06:35:30.413Z,54.10
2018-03-08T06:37:58.082Z,51.40
2018-03-08T06:40:25.705Z,51.33
2018-03-08T06:42:54.285Z,54.75
2018-03-08T06:45:21.900Z,53.65
2018-03-08T06:47:49.563Z,58.17
2018-03-08T06:50:17.949Z,54.60
2018-03-08T06:52:46.382Z,56.15
2018-03-08T06:55:14.972Z,54.85
2018-03-08T06:57:43.440Z,55.25
2018-03-08T07:00:11.278Z,60.15
2018-03-08T07:02:38.972Z,57.57
2018-03-08T07:05:07.192Z,62.83
2018-03-08T07:07:35.106Z,56.60
2018-03-08T07:10:02.833Z,60.50
2018-03-08T07:12:31.420Z,58.80
2018-03-08T07:14:59.857Z,62.07
2018-03-08T07:17:27.484Z,62.27
2018-03-08T07:19:55.140Z,61.88
2018-03-08T07:22:22.761Z,64.33
2018-03-08T07:24:50.425Z,62.38
2018-03-08T07:27:18.046Z,62.70
2018-03-08T07:29:45.721Z,67.63
2018-03-08T07:32:13.357Z,61.53
2018-03-08T07:34:41.441Z,63.80
2018-03-08T07:37:09.869Z,63.13
2018-03-08T07:39:37.534Z,61.50
2018-03-08T07:42:05.184Z,60.33
2018-03-08T07:44:33.372Z,63.87
2018-03-08T07:47:01.030Z,65.20
2018-03-08T07:49:28.680Z,63.42
2018-03-08T07:51:56.359Z,63.03
2018-03-08T07:54:24.022Z,61.30
2018-03-08T07:56:51.637Z,62.20
2018-03-08T07:59:19.627Z,57.57
2018-03-08T08:01:47.288Z,59.17
2018-03-08T08:04:26.782Z,60.97
2018-03-08T08:20:25.387Z,46.13
2018-03-08T08:22:53.001Z,42.10
2018-03-08T08:25:21.333Z,45.67
2018-03-08T08:27:48.948Z,43.07
2018-03-08T08:30:16.596Z,30.30
2018-03-08T08:32:44.319Z,36.13
2018-03-08T08:35:11.977Z,35.50
2018-03-08T08:37:39.634Z,36.00
2018-03-08T08:40:07.297Z,32.72
2018-03-08T08:42:34.912Z,29.67
2018-03-08T08:45:02.529Z,29.80
2018-03-08T08:47:30.177Z,28.10
2018-03-08T08:49:57.837Z,29.07
2018-03-08T08:52:25.497Z,28.07
2018-03-08T08:54:53.741Z,24.70
2018-03-08T08:57:21.394Z,27.03
2018-03-08T08:59:49.021Z,27.40
2018-03-08T09:02:16.681Z,26.30
2018-03-08T09:04:44.345Z,28.55
2018-03-08T09:07:11.997Z,26.33
2018-03-08T09:09:40.354Z,27.60
2018-03-08T09:12:07.967Z,26.53
2018-03-08T09:14:36.382Z,26.77
2018-03-08T09:17:03.992Z,24.73
2018-03-08T09:19:31.661Z,26.13
2018-03-08T09:21:59.289Z,25.58
2018-03-08T09:24:26.965Z,23.87
2018-03-08T09:26:54.615Z,26.70
2018-03-08T09:29:22.260Z,27.13
2018-03-08T09:31:49.873Z,26.87
2018-03-08T09:34:17.516Z,25.17
2018-03-08T09:36:45.904Z,26.20
2018-03-08T09:39:14.317Z,26.67
2018-03-08T09:41:41.925Z,25.80
2018-03-08T09:44:09.577Z,26.63
2018-03-08T09:46:37.225Z,27.60
2018-03-08T09:49:04.893Z,27.20
2018-03-08T09:51:32.505Z,26.40
2018-03-08T09:54:00.170Z,29.37
2018-03-08T09:56:27.776Z,27.25
2018-03-08T09:58:55.399Z,29.20
2018-03-08T10:01:23.069Z,29.85
2018-03-08T10:03:50.685Z,24.85
2018-03-08T10:06:18.347Z,26.70
2018-03-08T10:08:46.729Z,29.30
2018-03-08T10:11:15.112Z,29.52
2018-03-08T10:13:43.532Z,28.43
2018-03-08T10:16:11.142Z,27.93
2018-03-08T10:18:38.789Z,31.52
2018-03-08T10:21:06.401Z,35.33
2018-03-08T10:23:34.060Z,34.28
2018-03-08T10:26:01.675Z,26.33
2018-03-08T10:28:29.344Z,38.28
2018-03-08T10:30:56.958Z,32.77
2018-03-08T10:33:24.585Z,38.75
2018-03-08T10:35:52.229Z,37.07
2018-03-08T10:38:19.849Z,33.47
2018-03-08T10:40:47.517Z,38.23
2018-03-08T10:43:15.151Z,38.78
2018-03-08T10:45:42.801Z,36.00
2018-03-08T10:48:10.408Z,35.97
2018-03-08T10:50:38.072Z,36.73
2018-03-08T10:53:06.453Z,34.80
2018-03-08T10:55:34.100Z,36.30
2018-03-08T10:58:03.825Z,33.08
2018-03-08T11:00:37.816Z,31.90
2018-03-08T11:03:06.981Z,29.53
2018-03-08T11:05:39.624Z,28.70
2018-03-08T11:08:07.251Z,26.55
2018-03-08T11:10:35.045Z,26.10
2018-03-08T11:13:02.665Z,28.20
2018-03-08T11:15:30.488Z,26.33
2018-03-08T11:17:58.106Z,29.23
2018-03-08T11:20:25.726Z,26.50
2018-03-08T11:22:53.390Z,28.20
2018-03-08T11:25:21.045Z,29.50
2018-03-08T11:27:48.665Z,30.70
2018-03-08T11:30:17.089Z,30.53
2018-03-08T11:32:44.773Z,30.30
2018-03-08T11:35:12.442Z,30.95
2018-03-08T11:37:40.105Z,34.43
2018-03-08T11:40:07.724Z,32.67
2018-03-08T11:42:35.338Z,32.77
2018-03-08T11:45:03.000Z,29.98
2018-03-08T11:47:31.382Z,30.07
2018-03-08T11:49:59.798Z,28.70
2018-03-08T11:52:27.759Z,28.65
2018-03-08T11:54:55.435Z,30.62
2018-03-08T11:57:23.056Z,31.45
2018-03-08T11:59:50.769Z,27.45
2018-03-08T12:02:18.429Z,30.00
2018-03-08T12:04:46.081Z,29.50
2018-03-08T12:07:13.737Z,30.95
2018-03-08T12:09:41.395Z,30.30
2018-03-08T12:12:09.052Z,31.20
2018-03-08T12:14:36.665Z,33.00
2018-03-08T12:17:04.551Z,31.00
2018-03-08T12:19:32.965Z,33.00
2018-03-08T12:22:00.618Z,31.17
2018-03-08T12:24:28.285Z,34.57
2018-03-08T12:26:55.938Z,32.60
2018-03-08T12:29:23.545Z,30.80
2018-03-08T12:31:51.196Z,31.10
2018-03-08T12:34:18.857Z,33.13
2018-03-08T12:36:46.787Z,31.83
2018-03-08T12:39:14.446Z,28.00
2018-03-08T12:41:42.140Z,29.10
2018-03-08T12:44:09.797Z,27.20
2018-03-08T12:46:37.444Z,27.80
2018-03-08T12:49:05.132Z,27.97
2018-03-08T12:51:32.749Z,30.10
2018-03-08T12:54:00.417Z,30.33
2018-03-08T12:56:28.045Z,29.17
2018-03-08T12:58:55.657Z,27.62
2018-03-08T13:01:23.317Z,26.77
2018-03-08T13:03:50.968Z,27.05
2018-03-08T13:06:18.586Z,25.77
2018-03-08T13:08:46.233Z,27.52
2018-03-08T13:11:13.893Z,24.27
2018-03-08T13:13:41.509Z,24.90
2018-03-08T13:16:09.165Z,24.93
2018-03-08T13:18:36.816Z,22.00
2018-03-08T13:21:04.641Z,20.93
2018-03-08T13:23:32.260Z,21.80
2018-03-08T13:25:59.909Z,19.10
2018-03-08T13:28:27.543Z,17.87
2018-03-08T13:30:55.201Z,19.03
2018-03-08T13:33:22.812Z,18.13
2018-03-08T13:35:51.469Z,15.83
2018-03-08T13:38:19.085Z,17.00
2018-03-08T13:40:46.760Z,17.15
2018-03-08T13:43:14.405Z,15.17
2018-03-08T13:45:42.664Z,12.60
2018-03-08T13:48:10.296Z,15.13
2018-03-08T13:50:37.942Z,14.03
2018-03-08T13:53:05.606Z,13.90
2018-03-08T13:55:33.450Z,14.43
2018-03-08T13:58:01.793Z,14.10
2018-03-08T14:00:30.326Z,13.97
2018-03-08T14:02:57.977Z,14.77
2018-03-08T14:05:25.622Z,13.50
2018-03-08T14:07:53.236Z,12.05
2018-03-08T14:10:21.415Z,12.75
2018-03-08T14:12:49.807Z,12.37
2018-03-08T14:15:17.469Z,11.98
2018-03-08T14:17:45.284Z,12.37
2018-03-08T14:20:13.060Z,12.57
2018-03-08T14:22:40.677Z,11.25
2018-03-08T14:25:08.324Z,11.12
2018-03-08T14:27:35.930Z,9.73
2018-03-08T14:30:03.589Z,11.53
2018-03-08T14:32:31.213Z,10.50
2018-03-08T14:34:59.009Z,10.27
2018-03-08T14:37:26.620Z,9.60
2018-03-08T14:39:54.533Z,10.20
2018-03-08T14:42:22.874Z,9.50
2018-03-08T14:44:50.690Z,10.53
2018-03-08T14:47:18.665Z,10.47
2018-03-08T14:49:46.320Z,9.90
2018-03-08T14:52:14.085Z,9.83
2018-03-08T14:54:42.340Z,9.87
2018-03-08T14:57:09.965Z,9.80
2018-03-08T14:59:37.995Z,11.10
2018-03-08T15:02:06.229Z,9.53
2018-03-08T15:04:33.894Z,9.43
2018-03-08T15:07:01.663Z,10.20
2018-03-08T15:09:29.313Z,11.20
2018-03-08T15:11:56.967Z,9.80
2018-03-08T15:14:24.644Z,10.73
2018-03-08T15:16:55.750Z,9.20
2018-03-08T15:19:23.665Z,10.05
2018-03-08T15:21:51.316Z,8.87
2018-03-08T15:24:19.017Z,10.60
2018-03-08T15:26:46.671Z,10.00
2018-03-08T15:29:14.294Z,10.05
2018-03-08T15:31:41.945Z,10.30
2018-03-08T15:34:09.597Z,9.65
2018-03-08T15:36:37.225Z,10.00
2018-03-08T15:39:04.870Z,9.65
2018-03-08T15:41:33.208Z,9.73
2018-03-08T15:44:00.868Z,9.85
2018-03-08T15:46:28.912Z,10.00
2018-03-08T15:48:56.564Z,9.77
2018-03-08T15:51:24.164Z,9.20
2018-03-08T15:53:51.781Z,10.63
2018-03-08T15:56:20.025Z,9.97
2018-03-08T15:58:48.397Z,11.03
2018-03-08T16:01:16.851Z,10.45
2018-03-08T16:03:44.501Z,8.37
2018-03-08T16:06:12.124Z,10.75
2018-03-08T16:09:06.425Z,8.97
2018-03-08T16:11:34.640Z,10.52
2018-03-08T16:14:02.280Z,8.53
2018-03-08T16:16:29.925Z,8.80
2018-03-08T16:18:57.590Z,9.73
2018-03-08T16:21:25.257Z,8.67
2018-03-08T16:23:52.910Z,8.48
2018-03-08T16:26:20.510Z,8.30
2018-03-08T16:28:48.114Z,7.40
2018-03-08T16:31:15.756Z,6.80
2018-03-08T16:33:43.401Z,7.45
2018-03-08T16:36:11.040Z,6.77
2018-03-08T16:38:38.648Z,6.50
2018-03-08T16:41:06.292Z,6.30
2018-03-08T16:43:33.933Z,6.07
2018-03-08T16:46:02.309Z,5.50
2018-03-08T16:48:30.727Z,5.57
2018-03-08T16:50:58.423Z,6.03
2018-03-08T16:53:26.024Z,5.93
2018-03-08T16:55:53.730Z,4.77
2018-03-08T16:58:21.368Z,5.43
2018-03-08T17:00:48.973Z,4.20
2018-03-08T17:03:16.631Z,4.73
2018-03-08T17:05:44.407Z,5.03
2018-03-08T17:08:12.833Z,5.55
2018-03-08T17:10:40.489Z,4.90
2018-03-08T17:13:08.100Z,5.30
2018-03-08T17:15:35.700Z,5.80
2018-03-08T17:18:03.354Z,5.33
2018-03-08T17:20:31.007Z,5.10
2018-03-08T17:22:59.665Z,5.90
2018-03-08T17:25:27.256Z,5.70
2018-03-08T17:27:54.900Z,6.00
2018-03-08T17:30:23.310Z,6.00
2018-03-08T17:32:50.960Z,6.20
2018-03-08T17:35:18.559Z,6.37
2018-03-08T17:37:46.312Z,4.90
2018-03-08T17:40:15.518Z,5.50
2018-03-08T17:42:43.364Z,7.00
2018-03-08T17:45:11.051Z,6.95
2018-03-08T17:47:38.692Z,7.70
2018-03-08T17:50:07.190Z,6.47
2018-03-08T17:52:34.949Z,7.33
2018-03-08T17:55:02.594Z,6.75
2018-03-08T17:57:30.361Z,6.40
2018-03-08T17:59:58.000Z,6.33
2018-03-08T18:02:25.633Z,6.03
2018-03-08T18:04:53.289Z,6.40
2018-03-08T18:07:20.894Z,5.57
2018-03-08T18:09:48.492Z,5.70
2018-03-08T18:12:16.901Z,6.30
2018-03-08T18:14:44.814Z,5.80
2018-03-08T18:17:12.416Z,6.62
2018-03-08T18:19:40.326Z,5.93
2018-03-08T18:22:07.938Z,5.43
2018-03-08T18:24:35.586Z,6.00
2018-03-08T18:27:03.188Z,5.93
2018-03-08T18:29:30.833Z,8.77
2018-03-08T18:31:58.441Z,5.77
2018-03-08T18:34:26.086Z,6.53
2018-03-08T18:36:53.692Z,6.30
2018-03-08T18:39:21.342Z,7.30
2018-03-08T18:41:49.013Z,6.10
2018-03-08T18:44:17.422Z,7.00
2018-03-08T18:46:45.040Z,6.23
2018-03-08T18:49:12.708Z,7.03
2018-03-08T18:51:41.257Z,8.00
2018-03-08T18:54:08.869Z,6.63
2018-03-08T18:56:40.102Z,8.30
2018-03-08T18:59:08.470Z,7.40
2018-03-08T19:01:36.109Z,7.43
2018-03-08T19:04:03.846Z,8.73
2018-03-08T19:06:31.489Z,8.93
2018-03-08T19:08:59.093Z,9.10
2018-03-08T19:11:26.737Z,9.57
2018-03-08T19:13:54.345Z,9.20
2018-03-08T19:16:21.992Z,9.30
2018-03-08T19:18:50.361Z,9.60
2018-03-08T19:21:18.768Z,7.87
2018-03-08T19:23:46.379Z,9.93
2018-03-08T19:26:14.036Z,11.50
2018-03-08T19:28:41.783Z,11.02
2018-03-08T19:31:15.221Z,9.67
2018-03-08T19:33:43.157Z,9.87
2018-03-08T19:36:10.806Z,9.40
2018-03-08T19:38:42.088Z,10.10
2018-03-08T19:41:09.764Z,9.30
2018-03-08T19:43:38.901Z,10.10
2018-03-08T19:46:06.517Z,10.52
2018-03-08T19:48:34.943Z,10.80
2018-03-08T19:51:02.640Z,12.20
2018-03-08T19:53:30.382Z,11.20
2018-03-08T19:55:58.028Z,12.37
2018-03-08T19:58:25.709Z,10.83
2018-03-08T20:00:53.354Z,12.52
2018-03-08T20:03:21.008Z,11.10
2018-03-08T20:05:48.621Z,12.20
2018-03-08T20:08:17.008Z,13.07
2018-03-08T20:10:44.853Z,13.85
2018-03-08T20:13:12.788Z,13.40
2018-03-08T20:15:40.438Z,12.45
2018-03-08T20:18:08.054Z,12.20
2018-03-08T20:20:36.476Z,12.73
2018-03-08T20:23:04.153Z,11.73
2018-03-08T20:25:32.004Z,11.57
2018-03-08T20:27:59.649Z,10.17
2018-03-08T20:30:27.257Z,10.32
2018-03-08T20:32:54.914Z,11.60
2018-03-08T20:35:22.541Z,11.05
2018-03-08T20:37:50.185Z,10.73
2018-03-08T20:40:17.798Z,10.70
2018-03-08T20:42:45.449Z,10.63
2018-03-08T20:45:13.060Z,9.87
2018-03-08T20:47:41.197Z,9.10
2018-03-08T20:50:09.630Z,5.83
2018-03-08T20:52:37.302Z,7.57
2018-03-08T20:55:04.945Z,6.40
2018-03-08T20:57:32.550Z,6.50
2018-03-08T21:00:00.962Z,6.40
2018-03-08T21:02:28.564Z,6.22
2018-03-08T21:04:56.216Z,5.13
2018-03-08T21:07:23.856Z,5.78
2018-03-08T21:09:51.459Z,2.80
2018-03-08T21:12:19.867Z,4.97
2018-03-08T21:14:47.516Z,5.80
2018-03-08T21:17:15.891Z,4.50
2018-03-08T21:19:44.496Z,4.35
2018-03-08T21:22:12.297Z,4.53
2018-03-08T21:24:39.905Z,4.90
2018-03-08T21:27:07.555Z,4.93
2018-03-08T21:29:35.929Z,4.40
2018-03-08T21:32:04.337Z,4.30
2018-03-08T21:34:31.981Z,3.40
2018-03-08T21:36:59.608Z,3.87
2018-03-08T21:39:28.015Z,4.10
2018-03-08T21:41:55.617Z,4.30
2018-03-08T21:44:23.261Z,3.70
2018-03-08T21:46:51.157Z,4.68
2018-03-08T21:49:18.917Z,4.10
2018-03-08T21:51:46.524Z,4.00
2018-03-08T21:54:14.165Z,4.00
2018-03-08T21:56:42.542Z,3.90
2018-03-08T21:59:10.184Z,3.03
2018-03-08T22:01:37.790Z,3.77
2018-03-08T22:04:05.392Z,3.73
2018-03-08T22:06:33.042Z,3.27
2018-03-08T22:09:00.642Z,3.20
2018-03-08T22:11:28.249Z,2.92
2018-03-08T22:13:55.889Z,3.70
2018-03-08T22:16:23.525Z,4.30
2018-03-08T22:18:51.182Z,3.70
2018-03-08T22:21:19.593Z,3.87
2018-03-08T22:23:47.288Z,4.53
2018-03-08T22:26:14.934Z,4.78
2018-03-08T22:28:42.547Z,5.80
2018-03-08T22:31:10.957Z,5.72
2018-03-08T22:33:38.597Z,7.60
2018-03-08T22:36:06.241Z,7.57
2018-03-08T22:38:33.881Z,7.82
2018-03-08T22:41:01.550Z,8.60
2018-03-08T22:43:29.765Z,8.00
2018-03-08T22:45:57.420Z,8.60
2018-03-08T22:48:25.126Z,8.23
2018-03-08T22:50:53.357Z,8.57
2018-03-08T22:53:21.001Z,7.90
2018-03-08T22:55:48.644Z,8.43
2018-03-08T22:58:17.053Z,9.65
2018-03-08T23:00:44.668Z,8.88
2018-03-08T23:03:17.837Z,9.60
2018-03-08T23:05:45.447Z,10.10
2018-03-08T23:08:13.865Z,10.50
2018-03-08T23:10:41.521Z,11.73
2018-03-08T23:13:09.128Z,9.90
2018-03-08T23:15:36.778Z,11.53
2018-03-08T23:18:04.401Z,10.63
2018-03-08T23:20:32.044Z,12.10
2018-03-08T23:22:59.649Z,12.57
2018-03-08T23:25:27.308Z,11.63
2018-03-08T23:27:54.921Z,13.32
2018-03-08T23:30:22.726Z,14.30
2018-03-08T23:32:50.340Z,12.80
2018-03-08T23:35:17.989Z,13.60
2018-03-08T23:37:46.360Z,13.80
2018-03-08T23:40:15.093Z,13.80
2018-03-08T23:42:42.741Z,15.77
2018-03-08T23:45:10.356Z,15.23
2018-03-08T23:47:38.004Z,15.30
2018-03-08T23:50:05.658Z,15.27
2018-03-08T23:52:33.310Z,16.37
2018-03-08T23:55:00.920Z,14.80
2018-03-08T23:57:28.564Z,14.20
2018-03-08T23:59:56.181Z,14.75
